createdAt,value
2022-11-03T00:02:14.292Z,11.90
2022-11-03T00:04:43.473Z,11.48
2022-11-03T00:07:11.804Z,11.00
2022-11-03T00:09:39.890Z,10.45
2022-11-03T00:12:08.617Z,13.82
2022-11-03T00:14:38.023Z,9.43
2022-11-03T00:17:06.074Z,10.73
2022-11-03T00:19:34.193Z,9.98
2022-11-03T00:22:02.239Z,13.63
2022-11-03T00:24:30.426Z,10.52
2022-11-03T00:26:58.539Z,16.05
2022-11-03T00:29:28.733Z,10.93
2022-11-03T00:31:58.183Z,6.90
2022-11-03T00:34:26.323Z,10.65
2022-11-03T00:36:56.767Z,10.55
2022-11-03T00:39:24.896Z,7.50
2022-11-03T00:41:53.616Z,11.32
2022-11-03T00:44:21.659Z,8.95
2022-11-03T00:46:49.725Z,8.93
2022-11-03T00:49:19.207Z,6.78
2022-11-03T00:51:47.293Z,9.90
2022-11-03T00:54:15.569Z,7.75
2022-11-03T00:56:44.294Z,11.65
2022-11-03T00:59:12.317Z,8.15
2022-11-03T01:01:45.998Z,12.32
2022-11-03T01:04:33.501Z,8.45
2022-11-03T01:07:04.107Z,10.77
2022-11-03T01:09:37.130Z,9.05
2022-11-03T01:12:08.053Z,10.60
2022-11-03T01:14:38.528Z,10.98
2022-11-03T01:17:07.643Z,9.20
2022-11-03T01:19:35.731Z,11.52
2022-11-03T01:22:09.530Z,10.98
2022-11-03T01:24:40.428Z,11.85
2022-11-03T01:27:08.740Z,12.18
2022-11-03T01:29:36.820Z,12.57
2022-11-03T01:32:05.022Z,10.07
2022-11-03T01:34:35.423Z,11.25
2022-11-03T01:37:04.979Z,10.70
2022-11-03T01:39:33.088Z,10.35
2022-11-03T01:42:01.165Z,11.70
2022-11-03T01:44:35.057Z,10.38
2022-11-03T01:47:08.616Z,8.88
2022-11-03T01:49:42.383Z,11.57
2022-11-03T01:52:18.278Z,10.63
2022-11-03T01:54:50.058Z,9.60
2022-11-03T01:57:23.425Z,8.30
2022-11-03T01:59:52.693Z,9.63
2022-11-03T02:02:26.549Z,9.43
2022-11-03T02:04:55.609Z,11.75
2022-11-03T02:07:29.300Z,8.35
2022-11-03T02:09:57.694Z,13.68
2022-11-03T02:12:26.027Z,10.43
2022-11-03T02:14:57.735Z,10.05
2022-11-03T02:17:37.790Z,10.48
2022-11-03T02:20:52.308Z,12.15
2022-11-03T02:23:41.975Z,13.73
2022-11-03T02:26:51.004Z,9.70
2022-11-03T02:29:19.339Z,9.45
2022-11-03T02:32:08.177Z,8.05
2022-11-03T02:41:11.135Z,11.80
2022-11-03T02:43:51.843Z,8.77
2022-11-03T02:46:35.720Z,12.32
2022-11-03T02:49:03.769Z,8.90
2022-11-03T02:51:31.815Z,9.32
2022-11-03T02:54:55.804Z,7.28
2022-11-03T02:57:36.392Z,9.65
2022-11-03T03:00:43.759Z,7.75
2022-11-03T03:10:34.899Z,9.73
2022-11-03T03:13:14.378Z,7.38
2022-11-03T03:16:01.582Z,9.00
2022-11-03T03:22:20.149Z,8.25
2022-11-03T03:25:07.083Z,7.60
2022-11-03T03:27:58.190Z,12.48
2022-11-03T03:30:40.220Z,7.88
2022-11-03T03:33:12.713Z,8.55
2022-11-03T03:36:28.526Z,11.63
2022-11-03T03:39:39.740Z,9.13
2022-11-03T03:42:20.913Z,6.97
2022-11-03T03:52:03.779Z,11.07
2022-11-03T03:58:28.513Z,8.80
2022-11-03T04:01:49.001Z,10.85
2022-11-03T04:08:11.175Z,6.53
2022-11-03T04:10:45.770Z,7.25
2022-11-03T04:14:12.618Z,8.90
2022-11-03T04:17:00.534Z,13.20
2022-11-03T04:20:23.274Z,12.65
2022-11-03T04:23:03.679Z,7.22
2022-11-03T04:25:50.787Z,9.90
2022-11-03T04:28:24.861Z,10.35
2022-11-03T04:31:08.968Z,8.57
2022-11-03T04:33:41.574Z,9.13
2022-11-03T04:36:31.426Z,8.30
2022-11-03T04:38:59.838Z,9.77
2022-11-03T04:41:55.729Z,6.90
2022-11-03T04:44:32.657Z,9.02
2022-11-03T04:47:27.197Z,8.77
2022-11-03T04:50:07.344Z,8.25
2022-11-03T04:52:35.736Z,9.05
2022-11-03T04:55:12.872Z,11.85
2022-11-03T05:06:13.307Z,9.55
2022-11-03T05:11:59.874Z,10.68
2022-11-03T05:18:48.531Z,16.60
2022-11-03T05:28:54.875Z,8.93
2022-11-03T05:31:26.957Z,7.90
2022-11-03T05:33:58.936Z,8.30
2022-11-03T05:36:30.286Z,12.48
2022-11-03T05:39:04.243Z,10.25
2022-11-03T05:41:36.192Z,9.02
2022-11-03T05:44:24.244Z,12.18
2022-11-03T05:46:52.308Z,7.82
2022-11-03T05:49:21.757Z,7.15
2022-11-03T05:51:50.517Z,6.85
2022-11-03T05:54:23.896Z,11.80
2022-11-03T05:56:52.174Z,6.93
2022-11-03T05:59:27.108Z,11.40
2022-11-03T06:02:00.328Z,10.07
2022-11-03T06:04:33.887Z,7.35
2022-11-03T06:07:04.740Z,10.43
2022-11-03T06:09:34.967Z,9.85
2022-11-03T06:12:07.343Z,10.23
2022-11-03T06:14:38.871Z,8.48
2022-11-03T06:17:11.750Z,7.22
2022-11-03T06:19:43.434Z,9.40
2022-11-03T06:22:19.950Z,12.30
2022-11-03T06:24:49.274Z,14.68
2022-11-03T06:27:23.731Z,10.52
2022-11-03T06:29:57.728Z,7.93
2022-11-03T06:32:27.794Z,8.55
2022-11-03T06:34:58.807Z,9.80
2022-11-03T06:37:28.831Z,9.43
2022-11-03T06:40:02.102Z,10.75
2022-11-03T06:42:34.219Z,9.20
2022-11-03T06:45:15.978Z,10.77
2022-11-03T06:47:44.195Z,13.20
2022-11-03T06:50:25.000Z,8.00
2022-11-03T06:52:54.614Z,14.05
2022-11-03T06:55:28.049Z,9.18
2022-11-03T06:58:00.238Z,8.52
2022-11-03T07:00:52.228Z,8.70
2022-11-03T07:03:26.752Z,10.05
2022-11-03T07:06:01.078Z,9.20
2022-11-03T07:08:33.056Z,10.27
2022-11-03T07:11:12.238Z,12.95
2022-11-03T07:13:40.539Z,10.82
2022-11-03T07:16:18.891Z,10.05
2022-11-03T07:18:52.760Z,12.98
2022-11-03T07:21:37.415Z,11.55
2022-11-03T07:24:17.439Z,13.93
2022-11-03T07:26:46.617Z,11.63
2022-11-03T07:29:21.223Z,11.18
2022-11-03T07:31:53.129Z,10.35
2022-11-03T07:34:25.136Z,11.40
2022-11-03T07:36:55.996Z,9.95
2022-11-03T07:39:36.267Z,7.38
2022-11-03T07:42:14.861Z,7.63
2022-11-03T07:44:43.335Z,7.18
2022-11-03T07:47:17.123Z,11.65
2022-11-03T07:49:46.102Z,8.80
2022-11-03T07:52:17.627Z,7.18
2022-11-03T07:54:45.965Z,8.60
2022-11-03T07:57:35.176Z,10.18
2022-11-03T08:00:10.321Z,10.07
2022-11-03T08:02:49.120Z,11.70
2022-11-03T08:07:50.801Z,9.65
2022-11-03T08:10:18.904Z,13.90
2022-11-03T08:12:49.239Z,11.48
2022-11-03T08:15:17.384Z,7.47
2022-11-03T08:17:48.749Z,9.45
2022-11-03T08:20:18.078Z,9.50
2022-11-03T08:22:59.181Z,9.73
2022-11-03T08:25:36.461Z,9.48
2022-11-03T08:28:04.857Z,9.85
2022-11-03T08:30:34.018Z,8.25
2022-11-03T08:33:03.575Z,6.50
2022-11-03T08:35:34.047Z,10.60
2022-11-03T08:38:07.012Z,10.57
2022-11-03T08:40:35.564Z,8.00
2022-11-03T08:43:04.098Z,5.47
2022-11-03T08:45:32.449Z,11.05
2022-11-03T08:48:00.745Z,6.72
2022-11-03T08:50:30.266Z,9.80
2022-11-03T08:53:00.830Z,7.15
2022-11-03T08:55:29.049Z,7.97
2022-11-03T08:57:57.190Z,7.35
2022-11-03T09:00:25.203Z,6.88
2022-11-03T09:02:53.208Z,8.35
2022-11-03T09:05:21.255Z,8.57
2022-11-03T09:10:42.301Z,8.35
2022-11-03T09:13:13.070Z,6.50
2022-11-03T09:15:41.287Z,9.85
2022-11-03T09:18:09.609Z,7.93
2022-11-03T09:20:47.181Z,5.93
2022-11-03T09:23:17.029Z,5.65
2022-11-03T09:25:45.100Z,9.50
2022-11-03T09:28:16.631Z,6.72
2022-11-03T09:30:48.000Z,5.53
2022-11-03T09:33:16.228Z,11.90
2022-11-03T09:35:44.448Z,5.65
2022-11-03T09:38:12.604Z,5.00
2022-11-03T09:40:42.515Z,4.38
2022-11-03T09:43:11.172Z,4.70
2022-11-03T09:45:40.083Z,5.63
2022-11-03T09:48:16.742Z,3.80
2022-11-03T09:50:45.043Z,5.47
2022-11-03T09:53:13.959Z,4.40
2022-11-03T09:55:43.535Z,4.90
2022-11-03T09:58:15.685Z,7.00
2022-11-03T10:00:44.587Z,5.95
2022-11-03T10:03:18.024Z,5.78
2022-11-03T10:05:47.192Z,2.90
2022-11-03T10:08:22.922Z,5.15
2022-11-03T10:10:53.565Z,5.07
2022-11-03T10:13:29.139Z,6.63
2022-11-03T10:15:57.951Z,4.18
2022-11-03T10:18:27.308Z,5.35
2022-11-03T10:20:59.695Z,6.15
2022-11-03T10:23:27.963Z,4.47
2022-11-03T10:26:09.654Z,4.18
2022-11-03T10:28:38.134Z,5.03
2022-11-03T10:31:20.356Z,5.70
2022-11-03T10:33:54.676Z,5.68
2022-11-03T10:36:27.572Z,4.25
2022-11-03T10:38:56.743Z,6.55
2022-11-03T10:41:27.882Z,4.35
2022-11-03T10:44:05.859Z,3.97
2022-11-03T10:46:51.493Z,5.80
2022-11-03T10:49:21.740Z,6.05
2022-11-03T10:51:52.423Z,4.85
2022-11-03T10:54:22.581Z,7.32
2022-11-03T10:56:53.085Z,5.88
2022-11-03T10:59:23.567Z,3.92
2022-11-03T11:01:52.256Z,5.93
2022-11-03T11:04:21.948Z,8.18
2022-11-03T11:06:50.169Z,7.65
2022-11-03T11:09:23.414Z,7.20
2022-11-03T11:12:06.493Z,7.38
2022-11-03T11:14:39.795Z,5.28
2022-11-03T11:17:42.069Z,6.47
2022-11-03T11:20:35.222Z,5.22
2022-11-03T11:23:49.117Z,5.18
2022-11-03T11:26:32.158Z,5.88
2022-11-03T11:29:43.832Z,4.15
2022-11-03T11:32:44.758Z,5.50
2022-11-03T11:35:18.961Z,6.05
2022-11-03T11:37:47.021Z,5.35
2022-11-03T11:40:35.979Z,5.63
2022-11-03T11:43:28.175Z,6.93
2022-11-03T11:46:33.526Z,5.82
2022-11-03T11:49:46.797Z,5.35
2022-11-03T11:52:19.238Z,5.63
2022-11-03T11:54:47.724Z,6.70
2022-11-03T11:57:21.151Z,6.57
2022-11-03T11:59:53.935Z,6.72
2022-11-03T12:02:25.286Z,5.20
2022-11-03T12:04:59.644Z,7.60
2022-11-03T12:07:36.723Z,4.70
2022-11-03T12:10:15.647Z,6.63
2022-11-03T12:12:43.831Z,6.43
2022-11-03T12:15:49.877Z,5.07
2022-11-03T12:18:40.021Z,6.78
2022-11-03T12:21:11.282Z,6.53
2022-11-03T12:23:43.890Z,5.97
2022-11-03T12:26:19.011Z,5.97
2022-11-03T12:28:47.239Z,5.35
2022-11-03T12:31:15.502Z,6.93
2022-11-03T12:33:43.744Z,6.55
2022-11-03T12:36:11.900Z,6.32
2022-11-03T12:38:41.515Z,5.93
2022-11-03T12:41:27.829Z,6.57
2022-11-03T12:43:56.894Z,5.18
2022-11-03T12:46:25.398Z,6.90
2022-11-03T12:48:53.579Z,4.93
2022-11-03T12:51:23.269Z,5.72
2022-11-03T12:53:53.113Z,5.10
2022-11-03T12:56:21.391Z,6.35
2022-11-03T12:58:49.564Z,6.25
2022-11-03T13:01:18.777Z,5.68
2022-11-03T13:03:46.928Z,5.97
2022-11-03T13:06:42.132Z,8.52
2022-11-03T13:09:16.174Z,7.22
2022-11-03T13:12:01.843Z,6.30
2022-11-03T13:14:30.062Z,6.43
2022-11-03T13:16:59.805Z,4.82
2022-11-03T13:19:35.620Z,6.13
2022-11-03T13:22:04.348Z,7.55
2022-11-03T13:24:36.194Z,8.07
2022-11-03T13:27:04.760Z,5.63
2022-11-03T13:29:35.743Z,8.07
2022-11-03T13:32:07.076Z,6.15
2022-11-03T13:34:35.504Z,7.13
2022-11-03T13:37:04.684Z,6.53
2022-11-03T13:39:33.144Z,5.95
2022-11-03T13:42:02.779Z,6.38
2022-11-03T13:44:31.044Z,7.03
2022-11-03T13:46:59.422Z,7.85
2022-11-03T13:52:15.632Z,5.88
2022-11-03T14:00:25.823Z,5.50
2022-11-03T14:05:43.295Z,7.40
2022-11-03T14:08:11.521Z,6.18
2022-11-03T14:10:39.742Z,7.57
2022-11-03T14:13:08.657Z,9.00
2022-11-03T14:15:37.184Z,8.45
2022-11-03T14:18:05.569Z,7.70
2022-11-03T14:20:33.744Z,7.20
2022-11-03T14:23:02.290Z,8.38
2022-11-03T14:25:30.522Z,5.97
2022-11-03T14:27:58.672Z,6.80
2022-11-03T14:30:28.314Z,11.70
2022-11-03T14:32:59.598Z,5.93
2022-11-03T14:35:28.024Z,8.60
2022-11-03T14:37:56.182Z,7.90
2022-11-03T14:40:46.961Z,5.63
2022-11-03T14:43:15.097Z,7.22
2022-11-03T14:45:46.786Z,11.50
2022-11-03T14:48:15.152Z,7.50
2022-11-03T14:50:43.569Z,7.75
2022-11-03T14:53:11.887Z,8.23
2022-11-03T14:55:41.318Z,6.93
2022-11-03T14:58:09.894Z,10.35
2022-11-03T15:00:38.140Z,7.50
2022-11-03T15:03:07.869Z,9.70
2022-11-03T15:05:47.752Z,10.07
2022-11-03T15:08:18.869Z,7.20
2022-11-03T15:10:47.213Z,13.05
2022-11-03T15:13:15.278Z,10.35
2022-11-03T15:15:43.373Z,8.40
2022-11-03T15:18:13.148Z,7.93
2022-11-03T15:20:41.488Z,8.30
2022-11-03T15:25:58.049Z,8.70
2022-11-03T15:28:26.100Z,10.68
2022-11-03T15:30:54.472Z,9.77
2022-11-03T15:33:24.152Z,7.95
2022-11-03T15:35:52.261Z,9.43
2022-11-03T15:38:22.843Z,9.90
2022-11-03T15:41:15.327Z,8.85
2022-11-03T15:43:43.975Z,11.30
2022-11-03T15:46:13.757Z,8.73
2022-11-03T15:48:43.679Z,8.23
2022-11-03T15:51:12.519Z,11.05
2022-11-03T15:53:44.176Z,12.65
2022-11-03T15:56:12.501Z,9.98
2022-11-03T15:58:40.709Z,9.93
2022-11-03T16:01:09.086Z,10.23
2022-11-03T16:03:37.185Z,8.75
2022-11-03T16:06:07.255Z,9.57
2022-11-03T16:08:35.412Z,11.25
2022-11-03T16:11:03.601Z,9.98
2022-11-03T16:13:31.777Z,15.05
2022-11-03T16:15:59.954Z,10.57
2022-11-03T16:18:28.135Z,11.27
2022-11-03T16:20:56.274Z,10.43
2022-11-03T16:23:25.947Z,7.85
2022-11-03T16:25:55.114Z,8.57
2022-11-03T16:28:23.739Z,9.23
2022-11-03T16:30:54.500Z,9.63
2022-11-03T16:33:23.065Z,9.98
2022-11-03T16:35:51.990Z,8.93
2022-11-03T16:38:20.723Z,8.85
2022-11-03T16:40:50.172Z,9.68
2022-11-03T16:43:18.297Z,12.85
2022-11-03T16:45:46.373Z,10.85
2022-11-03T16:48:14.620Z,12.88
2022-11-03T16:50:44.693Z,10.68
2022-11-03T16:53:13.310Z,11.40
2022-11-03T16:55:41.858Z,12.45
2022-11-03T16:58:12.567Z,9.68
2022-11-03T17:00:41.797Z,10.35
2022-11-03T17:03:10.626Z,12.65
2022-11-03T17:05:39.265Z,10.68
2022-11-03T17:08:25.630Z,9.82
2022-11-03T17:10:55.770Z,11.05
2022-11-03T17:13:25.286Z,11.23
2022-11-03T17:15:55.741Z,10.63
2022-11-03T17:18:24.092Z,10.63
2022-11-03T17:20:52.359Z,8.90
2022-11-03T17:23:20.466Z,13.00
2022-11-03T17:25:48.685Z,10.57
2022-11-03T17:28:18.803Z,10.85
2022-11-03T17:30:48.309Z,12.52
2022-11-03T17:33:19.613Z,10.68
2022-11-03T17:35:48.263Z,9.60
2022-11-03T17:38:18.365Z,12.32
2022-11-03T17:40:48.715Z,11.98
2022-11-03T17:43:22.141Z,11.63
2022-11-03T17:45:52.252Z,11.60
2022-11-03T17:48:22.601Z,10.55
2022-11-03T17:50:53.308Z,15.32
2022-11-03T17:53:24.116Z,9.25
2022-11-03T17:56:23.397Z,10.93
2022-11-03T17:58:46.577Z,10.48
2022-11-03T18:01:22.409Z,20.80
2022-11-03T18:03:52.026Z,12.40
2022-11-03T18:06:22.088Z,10.73
2022-11-03T18:08:51.153Z,12.65
2022-11-03T18:11:43.824Z,15.93
2022-11-03T18:14:12.267Z,8.75
2022-11-03T18:16:42.020Z,12.63
2022-11-03T18:19:12.949Z,9.75
2022-11-03T18:21:41.426Z,11.32
2022-11-03T18:24:14.323Z,13.82
2022-11-03T18:26:42.426Z,11.35
2022-11-03T18:29:10.833Z,10.23
2022-11-03T18:31:44.317Z,8.65
2022-11-03T18:34:16.509Z,12.93
2022-11-03T18:36:45.114Z,12.88
2022-11-03T18:39:18.971Z,12.98
2022-11-03T18:41:47.186Z,13.32
2022-11-03T18:44:19.609Z,15.75
2022-11-03T18:46:51.254Z,13.70
2022-11-03T18:49:20.425Z,11.35
2022-11-03T18:51:50.844Z,9.90
2022-11-03T18:54:21.551Z,20.58
2022-11-03T18:56:50.182Z,10.63
2022-11-03T18:59:24.075Z,10.13
2022-11-03T19:01:53.790Z,14.35
2022-11-03T19:04:22.492Z,10.43
2022-11-03T19:06:52.938Z,12.32
2022-11-03T19:09:24.479Z,8.75
2022-11-03T19:11:55.644Z,11.05
2022-11-03T19:14:27.457Z,8.65
2022-11-03T19:19:45.371Z,9.20
2022-11-03T19:22:17.765Z,8.60
2022-11-03T19:24:46.297Z,8.68
2022-11-03T19:27:18.228Z,10.18
2022-11-03T19:29:48.495Z,14.98
2022-11-03T19:32:23.727Z,9.35
2022-11-03T19:34:58.109Z,12.48
2022-11-03T19:37:30.984Z,12.50
2022-11-03T19:40:02.514Z,6.90
2022-11-03T19:42:31.276Z,9.75
2022-11-03T19:45:00.994Z,9.88
2022-11-03T19:47:34.660Z,8.13
2022-11-03T19:50:04.463Z,9.73
2022-11-03T19:52:33.565Z,8.10
2022-11-03T19:55:05.639Z,9.70
2022-11-03T19:57:36.168Z,9.38
2022-11-03T20:00:08.308Z,10.95
2022-11-03T20:02:37.939Z,7.57
2022-11-03T20:05:06.627Z,8.45
2022-11-03T20:07:35.052Z,7.60
2022-11-03T20:10:04.945Z,9.63
2022-11-03T20:12:33.169Z,7.35
2022-11-03T20:15:01.651Z,10.05
2022-11-03T20:17:29.749Z,11.00
2022-11-03T20:19:59.212Z,9.10
2022-11-03T20:22:31.162Z,8.05
2022-11-03T20:25:03.174Z,8.85
2022-11-03T20:27:34.020Z,12.45
2022-11-03T20:30:03.134Z,9.38
2022-11-03T20:32:31.401Z,11.45
2022-11-03T20:35:01.019Z,9.32
2022-11-03T20:37:29.160Z,9.45
2022-11-03T20:39:57.232Z,9.75
2022-11-03T20:42:27.634Z,7.82
2022-11-03T20:44:55.844Z,10.48
2022-11-03T20:47:24.060Z,8.90
2022-11-03T20:49:52.141Z,9.80
2022-11-03T20:52:21.614Z,10.80
2022-11-03T20:54:51.041Z,11.20
2022-11-03T20:57:19.325Z,11.95
2022-11-03T20:59:47.492Z,12.90
2022-11-03T21:02:15.617Z,10.55
2022-11-03T21:04:44.131Z,12.57
2022-11-03T21:07:13.819Z,9.18
2022-11-03T21:09:43.425Z,11.68
2022-11-03T21:12:14.510Z,14.23
2022-11-03T21:14:57.534Z,9.82
2022-11-03T21:17:43.239Z,8.30
2022-11-03T21:20:12.317Z,10.10
2022-11-03T21:22:57.429Z,9.90
2022-11-03T21:25:27.062Z,11.30
2022-11-03T21:27:55.718Z,10.35
2022-11-03T21:30:24.227Z,10.35
2022-11-03T21:32:52.509Z,11.27
2022-11-03T21:35:22.427Z,11.45
2022-11-03T21:37:50.634Z,11.85
2022-11-03T21:40:19.067Z,11.65
2022-11-03T21:43:06.093Z,12.02
2022-11-03T21:45:34.629Z,14.10
2022-11-03T21:48:20.852Z,10.23
2022-11-03T21:50:49.869Z,13.23
2022-11-03T21:53:20.296Z,11.73
2022-11-03T21:55:49.383Z,15.35
2022-11-03T21:58:18.794Z,17.08
2022-11-03T22:00:47.602Z,13.38
2022-11-03T22:03:17.274Z,13.73
2022-11-03T22:05:47.395Z,17.58
2022-11-03T22:08:15.474Z,13.45
2022-11-03T22:10:43.798Z,18.70
2022-11-03T22:13:12.260Z,16.42
2022-11-03T22:15:59.661Z,13.77
2022-11-03T22:18:27.738Z,19.10
2022-11-03T22:21:16.403Z,15.05
2022-11-03T22:24:06.380Z,18.10
2022-11-03T22:26:53.609Z,17.67
2022-11-03T22:29:39.082Z,17.25
2022-11-03T22:32:15.913Z,19.40
2022-11-03T22:35:01.609Z,14.68
2022-11-03T22:40:17.429Z,18.55
2022-11-03T22:43:03.649Z,16.83
2022-11-03T22:45:49.118Z,14.75
2022-11-03T22:48:19.147Z,16.13
2022-11-03T22:50:47.437Z,17.98
2022-11-03T22:53:32.902Z,18.05
2022-11-03T22:56:01.833Z,19.25
2022-11-03T22:58:30.889Z,18.55
2022-11-03T23:01:03.603Z,17.80
2022-11-03T23:03:34.267Z,17.20
2022-11-03T23:06:03.639Z,18.02
2022-11-03T23:08:33.041Z,17.10
2022-11-03T23:11:06.106Z,17.05
2022-11-03T23:13:34.279Z,15.88
2022-11-03T23:16:09.436Z,15.27
2022-11-03T23:18:56.245Z,14.85
2022-11-03T23:21:25.001Z,16.65
2022-11-03T23:24:10.544Z,16.60
2022-11-03T23:26:38.711Z,19.10
2022-11-03T23:29:07.299Z,16.88
2022-11-03T23:31:36.161Z,16.80
2022-11-03T23:34:06.183Z,17.50
2022-11-03T23:36:34.771Z,16.50
2022-11-03T23:39:03.357Z,15.48
2022-11-03T23:41:33.513Z,18.15
2022-11-03T23:44:01.635Z,15.88
2022-11-03T23:46:47.990Z,16.15
2022-11-03T23:49:19.961Z,17.02
2022-11-03T23:51:48.057Z,16.08
2022-11-03T23:54:16.099Z,16.42
2022-11-03T23:57:05.930Z,17.23
